Time;durP1;ratioP1;P1;durP2;ratioP2;P2;SDS_P1;SDS_P2;PMS_P1;PMS_P2;Temp;Humidity;BMP_temperature;BMP_pressure;BME280_temperature;BME280_humidity;BME280_pressure;Samples;Min_cycle;Max_cycle;Signal;HPM_P1;HPM_P2
2023/12/16 00:00:31;;;;;;;4.95;1.27;;;10.60;99.90;;;;;;5148736;27;20023;-55
2023/12/16 00:02:57;;;;;;;6.90;1.30;;;10.60;99.90;;;;;;5148597;27;20265;-56
2023/12/16 00:05:22;;;;;;;5.15;1.45;;;10.50;99.90;;;;;;5148134;27;20079;-55
2023/12/16 00:07:48;;;;;;;7.57;1.30;;;10.50;99.90;;;;;;5148206;27;20069;-55
2023/12/16 00:10:16;;;;;;;9.57;1.60;;;10.50;99.90;;;;;;5148646;27;20024;-55
2023/12/16 00:12:42;;;;;;;7.53;1.63;;;10.50;99.90;;;;;;5148565;27;20031;-56
2023/12/16 00:15:10;;;;;;;3.05;1.08;;;10.50;99.90;;;;;;5148319;27;20280;-55
2023/12/16 00:17:36;;;;;;;7.68;1.50;;;10.50;99.90;;;;;;5148217;27;20023;-55
2023/12/16 00:20:03;;;;;;;5.28;1.73;;;10.50;99.90;;;;;;5147029;27;20053;-55
2023/12/16 00:22:29;;;;;;;12.93;2.13;;;10.50;99.90;;;;;;5148446;27;20037;-55
2023/12/16 00:24:55;;;;;;;4.63;1.30;;;10.50;99.90;;;;;;5147037;27;20027;-55
2023/12/16 00:27:21;;;;;;;9.63;2.00;;;10.50;99.90;;;;;;5147351;27;20027;-55
2023/12/16 00:29:46;;;;;;;4.47;1.30;;;10.50;99.90;;;;;;5148109;27;20072;-56
2023/12/16 00:32:12;;;;;;;8.95;1.92;;;10.50;99.90;;;;;;5148212;27;20030;-56
2023/12/16 00:34:38;;;;;;;10.77;2.28;;;10.50;99.90;;;;;;5147046;27;20099;-55
2023/12/16 00:37:06;;;;;;;8.30;1.48;;;10.40;99.90;;;;;;5147729;27;20086;-55
2023/12/16 00:39:32;;;;;;;5.03;1.75;;;10.40;99.90;;;;;;5147999;27;20139;-52
2023/12/16 00:41:58;;;;;;;8.63;2.03;;;10.40;99.90;;;;;;5146929;27;20230;-53
2023/12/16 00:44:24;;;;;;;7.53;1.90;;;10.40;99.90;;;;;;5146760;27;20029;-53
2023/12/16 00:46:50;;;;;;;8.32;2.03;;;10.40;99.90;;;;;;5147800;27;20027;-53
2023/12/16 00:49:15;;;;;;;11.85;2.95;;;10.40;99.90;;;;;;5147729;27;20090;-53
2023/12/16 00:51:41;;;;;;;8.15;2.05;;;10.40;99.90;;;;;;5147333;27;20130;-52
2023/12/16 00:54:07;;;;;;;13.05;2.58;;;10.40;99.90;;;;;;5147183;27;20027;-53
2023/12/16 00:56:33;;;;;;;14.27;2.95;;;10.50;99.90;;;;;;5147687;27;20026;-51
2023/12/16 00:58:59;;;;;;;6.13;1.42;;;10.40;99.90;;;;;;5147683;27;20038;-52
2023/12/16 01:01:24;;;;;;;6.20;1.63;;;10.40;99.90;;;;;;5147375;27;20031;-52
2023/12/16 01:03:50;;;;;;;10.98;2.40;;;10.40;99.90;;;;;;5147440;27;20027;-53
2023/12/16 01:06:15;;;;;;;9.05;1.75;;;10.40;99.90;;;;;;5146510;27;20023;-54
2023/12/16 01:08:42;;;;;;;5.47;1.58;;;10.40;99.90;;;;;;5146900;27;20055;-54
2023/12/16 01:11:11;;;;;;;4.72;1.13;;;10.40;99.90;;;;;;5147159;27;20147;-54
2023/12/16 01:13:37;;;;;;;4.53;1.23;;;10.40;99.90;;;;;;5147207;27;20023;-53
2023/12/16 01:16:03;;;;;;;8.23;1.52;;;10.50;99.90;;;;;;5147262;27;20051;-52
2023/12/16 01:18:29;;;;;;;7.78;1.65;;;10.50;99.90;;;;;;5147262;27;20192;-55
2023/12/16 01:20:55;;;;;;;10.57;2.38;;;10.50;99.90;;;;;;5147372;27;20082;-54
2023/12/16 01:23:21;;;;;;;6.20;1.75;;;10.50;99.90;;;;;;5146928;27;20030;-54
2023/12/16 01:25:47;;;;;;;8.55;2.15;;;10.50;99.90;;;;;;5147097;27;20019;-52
2023/12/16 01:28:13;;;;;;;9.48;1.60;;;10.50;99.90;;;;;;5112018;27;20192;-55
2023/12/16 01:30:38;;;;;;;5.28;1.40;;;10.50;99.90;;;;;;5146114;27;20075;-56
2023/12/16 01:33:04;;;;;;;8.40;2.75;;;10.50;99.90;;;;;;5146992;27;20083;-56
2023/12/16 01:35:30;;;;;;;7.15;1.90;;;10.50;99.90;;;;;;5146313;27;20281;-55
2023/12/16 01:37:55;;;;;;;6.80;2.00;;;10.50;99.90;;;;;;5146891;27;20094;-55
2023/12/16 01:40:21;;;;;;;7.20;1.70;;;10.50;99.90;;;;;;5145650;27;20031;-55
2023/12/16 01:42:47;;;;;;;3.65;1.27;;;10.50;99.90;;;;;;5145719;27;20034;-55
2023/12/16 01:45:15;;;;;;;7.00;1.60;;;10.50;99.90;;;;;;5146015;27;20050;-55
2023/12/16 01:47:41;;;;;;;4.70;1.38;;;10.40;99.90;;;;;;5147012;27;20023;-56
2023/12/16 01:50:07;;;;;;;8.82;2.33;;;10.40;99.90;;;;;;5146878;27;20199;-55
2023/12/16 01:52:32;;;;;;;3.92;1.23;;;10.40;99.90;;;;;;5146856;27;20301;-56
2023/12/16 01:54:58;;;;;;;6.55;2.35;;;10.40;99.90;;;;;;5145791;27;20038;-54
2023/12/16 01:57:23;;;;;;;9.55;2.40;;;10.40;99.90;;;;;;5146593;27;20220;-53
2023/12/16 01:59:49;;;;;;;2.47;1.15;;;10.40;99.90;;;;;;5146706;28;20027;-53
2023/12/16 02:02:15;;;;;;;5.35;1.40;;;10.40;99.90;;;;;;5145802;28;20098;-53
2023/12/16 02:04:40;;;;;;;7.45;1.42;;;10.40;99.90;;;;;;5146776;27;20023;-55
2023/12/16 02:07:06;;;;;;;9.32;1.88;;;10.40;99.90;;;;;;5149678;27;20027;-55
2023/12/16 02:09:32;;;;;;;7.70;2.40;;;10.40;99.90;;;;;;5149744;27;20088;-55
2023/12/16 02:11:57;;;;;;;7.82;1.48;;;10.40;99.90;;;;;;5150913;27;20023;-48
2023/12/16 02:14:23;;;;;;;4.53;1.17;;;10.50;99.90;;;;;;5150455;27;20038;-50
2023/12/16 02:16:49;;;;;;;6.32;1.60;;;10.50;99.90;;;;;;5149964;27;20188;-55
2023/12/16 02:19:25;;;;;;;8.23;1.77;;;10.50;99.90;;;;;;5150667;27;20031;-55
2023/12/16 02:21:51;;;;;;;5.90;1.27;;;10.50;99.90;;;;;;5150826;27;20277;-55
2023/12/16 02:24:17;;;;;;;5.93;1.35;;;10.40;99.90;;;;;;5150774;27;20265;-55
2023/12/16 02:26:43;;;;;;;4.20;0.80;;;10.40;99.90;;;;;;5150249;27;20033;-55
2023/12/16 02:29:08;;;;;;;2.95;1.10;;;10.40;99.90;;;;;;5149660;27;20285;-55
2023/12/16 02:31:34;;;;;;;6.57;1.17;;;10.40;99.90;;;;;;5150543;27;20084;-56
2023/12/16 02:34:00;;;;;;;5.10;0.95;;;10.40;99.90;;;;;;5150518;27;20027;-56
2023/12/16 02:36:26;;;;;;;5.13;1.10;;;10.40;99.90;;;;;;5150439;27;20166;-55
2023/12/16 02:38:51;;;;;;;5.25;1.30;;;10.40;99.90;;;;;;5149126;27;20027;-55
2023/12/16 02:41:17;;;;;;;7.43;1.33;;;10.40;99.90;;;;;;5150521;27;20023;-55
2023/12/16 02:43:43;;;;;;;5.45;1.13;;;10.40;99.90;;;;;;5149838;27;20027;-54
2023/12/16 02:46:09;;;;;;;6.28;1.05;;;10.40;99.90;;;;;;5150331;27;20110;-55
2023/12/16 02:48:35;;;;;;;5.57;0.98;;;10.40;99.90;;;;;;5150340;27;20027;-56
2023/12/16 02:51:00;;;;;;;1.08;0.65;;;10.40;99.90;;;;;;5150124;27;20079;-55
2023/12/16 02:53:27;;;;;;;4.63;1.10;;;10.30;99.90;;;;;;5150136;27;20027;-55
2023/12/16 02:55:52;;;;;;;4.70;1.10;;;10.30;99.90;;;;;;5148942;27;20057;-55
2023/12/16 02:58:18;;;;;;;1.77;0.70;;;10.30;99.90;;;;;;5149437;27;20039;-54
2023/12/16 03:00:44;;;;;;;4.03;1.10;;;10.30;99.90;;;;;;5149819;27;20054;-54
2023/12/16 03:03:10;;;;;;;5.45;1.40;;;10.30;99.90;;;;;;5149716;27;20043;-53
2023/12/16 03:05:36;;;;;;;9.13;1.45;;;10.30;99.90;;;;;;5149932;27;20273;-54
2023/12/16 03:08:02;;;;;;;10.82;1.50;;;10.30;99.90;;;;;;5148543;27;20046;-55
2023/12/16 03:10:28;;;;;;;7.45;1.48;;;10.30;99.90;;;;;;5149826;27;20023;-53
2023/12/16 03:12:53;;;;;;;5.63;1.48;;;10.30;99.90;;;;;;5148907;27;20323;-53
2023/12/16 03:15:19;;;;;;;5.72;1.20;;;10.30;99.90;;;;;;5148523;27;20049;-54
2023/12/16 03:17:45;;;;;;;10.00;1.85;;;10.30;99.90;;;;;;5148123;27;20116;-52
2023/12/16 03:20:11;;;;;;;5.65;1.30;;;10.30;99.90;;;;;;5149653;27;20099;-54
2023/12/16 03:22:37;;;;;;;8.52;1.40;;;10.30;99.90;;;;;;5149636;27;20212;-54
2023/12/16 03:25:03;;;;;;;4.45;0.98;;;10.30;99.90;;;;;;5148643;27;20093;-54
2023/12/16 03:27:29;;;;;;;5.60;1.35;;;10.30;99.90;;;;;;5149396;27;20268;-54
2023/12/16 03:29:54;;;;;;;5.15;1.13;;;10.30;99.90;;;;;;5149113;27;20027;-54
2023/12/16 03:32:20;;;;;;;5.22;1.20;;;10.20;99.90;;;;;;5149496;27;20023;-54
2023/12/16 03:34:45;;;;;;;8.52;1.10;;;10.20;99.90;;;;;;5149028;27;20031;-52
2023/12/16 03:37:12;;;;;;;5.93;1.10;;;10.20;99.90;;;;;;5149281;27;20027;-50
2023/12/16 03:39:40;;;;;;;8.48;1.40;;;10.20;99.90;;;;;;5149163;27;20019;-50
2023/12/16 03:42:06;;;;;;;5.63;1.33;;;10.20;99.90;;;;;;5149252;27;20288;-51
2023/12/16 03:44:32;;;;;;;7.72;1.30;;;10.20;99.90;;;;;;5148187;27;20079;-51
2023/12/16 03:46:58;;;;;;;3.72;1.10;;;10.20;99.90;;;;;;5147909;27;20019;-51
2023/12/16 03:49:24;;;;;;;3.28;1.33;;;10.20;99.90;;;;;;5148930;27;20162;-52
2023/12/16 03:51:49;;;;;;;4.90;1.15;;;10.10;99.90;;;;;;5148914;27;20023;-52
2023/12/16 03:54:15;;;;;;;5.47;1.30;;;10.20;99.90;;;;;;5149027;27;20031;-54
2023/12/16 03:56:41;;;;;;;6.20;1.10;;;10.10;99.90;;;;;;5148991;27;20039;-55
2023/12/16 03:59:06;;;;;;;4.88;1.17;;;10.10;99.90;;;;;;5148935;27;20303;-55
2023/12/16 04:01:32;;;;;;;5.03;1.10;;;10.20;99.90;;;;;;5148384;27;20197;-54
2023/12/16 04:03:58;;;;;;;5.68;1.67;;;10.10;99.90;;;;;;5148844;27;20027;-54
2023/12/16 04:06:23;;;;;;;4.97;1.05;;;10.20;99.90;;;;;;5148765;27;20288;-53
2023/12/16 04:08:49;;;;;;;7.72;1.40;;;10.20;99.90;;;;;;5148240;27;20062;-53
2023/12/16 04:11:15;;;;;;;6.03;1.20;;;10.20;99.90;;;;;;5148603;27;20046;-53
2023/12/16 04:13:40;;;;;;;5.65;1.30;;;10.10;99.90;;;;;;5148594;27;20260;-54
2023/12/16 04:16:06;;;;;;;3.45;1.15;;;10.10;99.90;;;;;;5148586;27;20030;-54
2023/12/16 04:18:32;;;;;;;5.95;1.35;;;10.20;99.90;;;;;;5148412;27;20030;-52
2023/12/16 04:20:58;;;;;;;3.92;1.25;;;10.20;99.90;;;;;;5148350;27;20269;-53
2023/12/16 04:23:23;;;;;;;3.97;1.10;;;10.10;99.90;;;;;;5148499;27;20023;-54
2023/12/16 04:25:49;;;;;;;4.70;1.40;;;10.20;99.90;;;;;;5148366;27;20034;-54
2023/12/16 04:28:15;;;;;;;6.20;1.30;;;10.10;99.90;;;;;;5147561;27;20053;-53
2023/12/16 04:30:41;;;;;;;2.83;0.90;;;10.10;99.90;;;;;;5147252;27;20332;-54
2023/12/16 04:33:06;;;;;;;5.65;1.45;;;10.10;99.90;;;;;;5147785;27;20031;-54
2023/12/16 04:35:32;;;;;;;1.05;0.52;;;10.10;99.90;;;;;;5148043;27;20080;-53
2023/12/16 04:37:58;;;;;;;2.50;0.95;;;10.10;99.90;;;;;;5148056;27;20026;-53
2023/12/16 04:40:23;;;;;;;7.07;1.10;;;10.20;99.90;;;;;;5147033;27;20019;-53
2023/12/16 04:42:49;;;;;;;6.18;1.63;;;10.20;99.90;;;;;;5146792;27;20023;-53
2023/12/16 04:45:15;;;;;;;5.68;1.20;;;10.20;99.90;;;;;;5147912;27;20027;-54
2023/12/16 04:47:40;;;;;;;6.88;1.60;;;10.10;99.90;;;;;;5146972;27;20027;-53
2023/12/16 04:50:06;;;;;;;5.78;1.38;;;10.20;99.90;;;;;;5147474;27;20030;-54
2023/12/16 04:52:32;;;;;;;4.00;1.15;;;10.20;99.90;;;;;;5146677;27;20068;-54
2023/12/16 04:54:58;;;;;;;3.63;1.10;;;10.20;99.90;;;;;;5147052;27;20042;-54
2023/12/16 04:57:24;;;;;;;4.90;1.20;;;10.20;99.90;;;;;;5147525;27;20027;-54
2023/12/16 04:59:49;;;;;;;5.15;1.20;;;10.20;99.90;;;;;;5147518;27;20015;-54
2023/12/16 05:02:15;;;;;;;4.78;1.35;;;10.20;99.90;;;;;;5147667;27;20050;-54
2023/12/16 05:04:41;;;;;;;2.13;1.02;;;10.20;99.90;;;;;;5146637;27;20034;-54
2023/12/16 05:07:06;;;;;;;2.95;1.00;;;10.20;99.90;;;;;;5147283;27;20123;-54
2023/12/16 05:09:32;;;;;;;4.78;0.90;;;10.20;99.90;;;;;;5147306;27;20042;-54
2023/12/16 05:11:59;;;;;;;3.42;0.90;;;10.10;99.90;;;;;;5147434;27;20031;-54
2023/12/16 05:14:24;;;;;;;5.50;1.20;;;10.10;99.90;;;;;;5147405;27;20363;-53
2023/12/16 05:16:50;;;;;;;2.85;0.98;;;10.10;99.90;;;;;;5147299;27;20042;-54
2023/12/16 05:19:16;;;;;;;2.45;1.00;;;10.20;99.90;;;;;;5147088;27;20072;-54
2023/12/16 05:21:41;;;;;;;6.68;1.15;;;10.20;99.90;;;;;;5147224;27;20067;-55
2023/12/16 05:24:07;;;;;;;3.72;1.20;;;10.10;99.90;;;;;;5146838;27;20049;-54
2023/12/16 05:26:32;;;;;;;2.03;0.80;;;10.10;99.90;;;;;;5147284;27;20091;-54
2023/12/16 05:28:58;;;;;;;5.18;1.08;;;10.10;99.90;;;;;;5147103;27;20052;-54
2023/12/16 05:31:24;;;;;;;3.30;1.05;;;10.10;99.90;;;;;;5146142;27;20056;-53
2023/12/16 05:33:49;;;;;;;5.68;1.30;;;10.10;99.90;;;;;;5147040;27;20027;-54
2023/12/16 05:36:15;;;;;;;3.35;1.00;;;10.10;99.90;;;;;;5147302;27;20027;-53
2023/12/16 05:38:41;;;;;;;3.10;1.10;;;10.10;99.90;;;;;;5145862;27;20095;-53
2023/12/16 05:41:06;;;;;;;4.18;0.98;;;10.10;99.90;;;;;;5146597;27;20034;-53
2023/12/16 05:43:32;;;;;;;4.07;1.10;;;10.10;99.90;;;;;;5145820;27;20084;-53
2023/12/16 05:45:58;;;;;;;4.07;1.00;;;10.10;99.90;;;;;;5146870;27;20085;-54
2023/12/16 05:48:24;;;;;;;2.83;0.90;;;10.10;99.90;;;;;;5146871;27;20368;-53
2023/12/16 05:50:49;;;;;;;4.22;1.27;;;10.10;99.90;;;;;;5146828;27;20103;-51
2023/12/16 05:53:15;;;;;;;4.35;1.00;;;10.10;99.90;;;;;;5146824;27;20034;-53
2023/12/16 05:55:43;;;;;;;3.88;1.40;;;10.10;99.90;;;;;;5146390;27;20307;-53
2023/12/16 05:58:09;;;;;;;4.35;1.00;;;10.10;99.90;;;;;;5146708;27;20027;-53
2023/12/16 06:00:35;;;;;;;4.50;0.98;;;10.10;99.90;;;;;;5146871;27;20188;-53
2023/12/16 06:03:00;;;;;;;1.88;0.90;;;10.10;99.90;;;;;;5146674;28;20071;-53
2023/12/16 06:05:26;;;;;;;4.30;0.90;;;10.00;99.90;;;;;;5146447;28;20043;-53
2023/12/16 06:07:52;;;;;;;5.20;1.00;;;10.00;99.90;;;;;;5146119;28;20229;-53
2023/12/16 06:10:18;;;;;;;6.10;1.33;;;10.00;99.90;;;;;;5146651;28;20057;-52
2023/12/16 06:12:43;;;;;;;2.75;1.10;;;10.00;99.90;;;;;;5146296;28;20068;-54
2023/12/16 06:15:09;;;;;;;5.80;1.00;;;10.10;99.90;;;;;;5146609;28;20090;-54
2023/12/16 06:17:35;;;;;;;1.30;0.82;;;10.10;99.90;;;;;;5145402;28;20158;-53
2023/12/16 06:20:01;;;;;;;4.82;1.10;;;10.10;99.90;;;;;;5146431;28;20028;-53
2023/12/16 06:22:27;;;;;;;4.55;1.13;;;10.10;99.90;;;;;;5145420;28;20038;-55
2023/12/16 06:24:53;;;;;;;5.30;1.20;;;10.20;99.90;;;;;;5145599;28;20024;-53
2023/12/16 06:27:18;;;;;;;5.13;1.25;;;10.20;99.90;;;;;;5145158;28;20034;-54
2023/12/16 06:29:44;;;;;;;8.02;1.40;;;10.20;99.90;;;;;;5146350;28;20352;-54
2023/12/16 06:32:10;;;;;;;5.50;1.20;;;10.20;99.90;;;;;;5146432;28;20084;-52
2023/12/16 06:34:35;;;;;;;4.38;1.05;;;10.20;99.90;;;;;;5146406;28;20055;-53
2023/12/16 06:37:01;;;;;;;2.92;1.00;;;10.20;99.90;;;;;;5146368;28;20039;-54
2023/12/16 06:39:27;;;;;;;7.50;1.88;;;10.20;99.90;;;;;;5146413;28;20035;-53
2023/12/16 06:41:53;;;;;;;5.35;1.75;;;10.20;99.90;;;;;;5146330;28;20011;-53
2023/12/16 06:44:18;;;;;;;4.68;2.38;;;10.20;99.90;;;;;;5145036;28;20201;-54
2023/12/16 06:46:44;;;;;;;6.30;2.22;;;10.10;99.90;;;;;;5145935;28;20015;-53
2023/12/16 06:49:10;;;;;;;10.82;3.58;;;10.10;99.90;;;;;;5145090;28;20039;-53
2023/12/16 06:51:35;;;;;;;8.68;2.65;;;10.20;99.90;;;;;;5146535;27;20031;-53
2023/12/16 06:54:01;;;;;;;10.02;3.60;;;10.20;99.90;;;;;;5150054;27;20030;-54
2023/12/16 06:56:27;;;;;;;12.88;2.78;;;10.10;99.90;;;;;;5150072;27;20049;-54
2023/12/16 06:58:52;;;;;;;5.88;2.15;;;10.10;99.90;;;;;;5149669;27;20136;-54
2023/12/16 07:01:21;;;;;;;6.53;2.45;;;10.10;99.90;;;;;;5150163;27;20177;-54
2023/12/16 07:03:46;;;;;;;11.35;2.72;;;10.10;99.90;;;;;;5132086;27;20026;-53
2023/12/16 07:06:12;;;;;;;8.57;2.05;;;10.10;99.90;;;;;;5148875;27;20213;-54
2023/12/16 07:08:40;;;;;;;3.03;1.25;;;10.20;99.90;;;;;;5149305;27;20081;-54
2023/12/16 07:11:06;;;;;;;4.85;1.30;;;10.10;99.90;;;;;;5149800;27;20022;-54
2023/12/16 07:13:31;;;;;;;4.60;1.65;;;10.10;99.90;;;;;;5149719;27;20027;-54
2023/12/16 07:15:57;;;;;;;4.60;1.17;;;10.10;99.90;;;;;;5149594;27;20251;-54
2023/12/16 07:18:23;;;;;;;4.57;1.20;;;10.10;99.90;;;;;;5149560;27;20054;-50
2023/12/16 07:20:48;;;;;;;2.72;0.90;;;10.10;99.90;;;;;;5148332;27;20023;-53
2023/12/16 07:23:14;;;;;;;6.10;1.15;;;10.10;99.90;;;;;;5149691;27;20219;-53
2023/12/16 07:25:40;;;;;;;1.98;0.65;;;10.10;99.90;;;;;;5149418;27;20019;-53
2023/12/16 07:28:06;;;;;;;2.00;0.70;;;10.20;99.90;;;;;;5148387;27;20042;-54
2023/12/16 07:30:32;;;;;;;2.28;1.10;;;10.10;99.90;;;;;;5149440;27;20015;-54
2023/12/16 07:32:58;;;;;;;2.15;0.70;;;10.10;99.90;;;;;;5149522;27;20038;-52
2023/12/16 07:35:23;;;;;;;2.42;0.80;;;10.10;99.90;;;;;;5148464;27;20027;-51
2023/12/16 07:37:49;;;;;;;1.92;0.80;;;10.10;99.90;;;;;;5149226;27;20023;-54
2023/12/16 07:40:15;;;;;;;3.40;0.70;;;10.10;99.90;;;;;;5149199;27;20034;-54
2023/12/16 07:42:41;;;;;;;2.33;0.70;;;10.10;99.90;;;;;;5148908;27;20038;-52
2023/12/16 07:45:07;;;;;;;4.38;0.90;;;10.10;99.90;;;;;;5130753;27;20019;-54
2023/12/16 07:47:33;;;;;;;2.67;0.63;;;10.10;99.90;;;;;;5148685;27;20082;-53
2023/12/16 07:49:58;;;;;;;2.33;0.70;;;10.10;99.90;;;;;;5148793;27;20039;-54
2023/12/16 07:52:24;;;;;;;2.80;0.80;;;10.10;99.90;;;;;;5147961;27;20092;-54
2023/12/16 07:54:50;;;;;;;2.30;1.30;;;10.10;99.90;;;;;;5148902;27;20176;-51
2023/12/16 07:57:16;;;;;;;3.53;1.15;;;10.10;99.90;;;;;;5148825;27;20045;-54
2023/12/16 07:59:42;;;;;;;3.00;0.80;;;10.10;99.90;;;;;;5148760;27;20042;-54
2023/12/16 08:02:10;;;;;;;3.25;0.88;;;10.10;99.90;;;;;;5148481;27;20155;-54
2023/12/16 08:04:37;;;;;;;3.30;1.00;;;10.10;99.90;;;;;;5149018;27;20038;-53
2023/12/16 08:07:03;;;;;;;5.28;1.08;;;10.10;99.90;;;;;;5148440;27;20019;-54
2023/12/16 08:09:29;;;;;;;4.07;0.90;;;10.20;99.90;;;;;;5148524;27;20045;-54
2023/12/16 08:11:58;;;;;;;3.88;0.90;;;10.20;99.90;;;;;;5148549;27;20027;-55
2023/12/16 08:14:24;;;;;;;5.25;1.50;;;10.20;99.90;;;;;;5148614;27;20034;-54
2023/12/16 08:16:50;;;;;;;1.95;1.00;;;10.20;99.90;;;;;;5148566;27;20046;-54
2023/12/16 08:19:15;;;;;;;4.68;1.13;;;10.30;99.90;;;;;;5148266;27;20197;-53
2023/12/16 08:21:41;;;;;;;5.38;1.05;;;10.20;99.90;;;;;;5147076;27;20023;-54
2023/12/16 08:24:07;;;;;;;1.52;0.80;;;10.20;99.90;;;;;;5148216;27;20020;-54
2023/12/16 08:26:32;;;;;;;3.60;1.30;;;10.20;99.90;;;;;;5148215;27;20062;-54
2023/12/16 08:28:58;;;;;;;3.08;0.85;;;10.20;99.90;;;;;;5148268;27;20023;-54
2023/12/16 08:31:24;;;;;;;1.70;0.80;;;10.20;99.90;;;;;;5148015;27;20174;-54
2023/12/16 08:33:49;;;;;;;4.18;1.50;;;10.20;99.90;;;;;;5147596;27;20039;-53
2023/12/16 08:36:15;;;;;;;4.28;1.50;;;10.20;99.90;;;;;;5148164;27;20023;-54
2023/12/16 08:38:41;;;;;;;10.18;2.70;;;10.20;99.90;;;;;;5147046;27;20131;-53
2023/12/16 08:41:08;;;;;;;9.30;2.55;;;10.20;99.90;;;;;;5147644;27;20031;-54
2023/12/16 08:43:34;;;;;;;6.25;1.67;;;10.20;99.90;;;;;;5147827;27;20077;-54
2023/12/16 08:46:00;;;;;;;3.60;0.80;;;10.30;99.90;;;;;;5146573;27;20026;-54
2023/12/16 08:48:26;;;;;;;3.45;1.30;;;10.30;99.90;;;;;;5146809;27;20031;-53
2023/12/16 08:50:52;;;;;;;5.80;1.73;;;10.30;99.90;;;;;;5147238;27;20166;-53
2023/12/16 08:53:19;;;;;;;4.63;1.52;;;10.30;99.90;;;;;;5147544;27;20230;-54
2023/12/16 08:55:44;;;;;;;7.22;1.50;;;10.30;99.90;;;;;;5147593;27;20024;-54
2023/12/16 08:58:10;;;;;;;5.57;2.13;;;10.30;99.90;;;;;;5147545;27;20107;-54
2023/12/16 09:00:36;;;;;;;7.18;1.90;;;10.20;99.90;;;;;;5147625;27;20091;-54
2023/12/16 09:03:01;;;;;;;4.30;1.25;;;10.20;99.90;;;;;;5147366;27;20031;-54
2023/12/16 09:05:28;;;;;;;8.15;1.80;;;10.30;99.90;;;;;;5147175;27;20019;-54
2023/12/16 09:07:54;;;;;;;7.15;2.30;;;10.20;99.90;;;;;;5147051;27;20256;-53
2023/12/16 09:10:20;;;;;;;3.33;1.00;;;10.20;99.90;;;;;;5147500;27;20260;-54
2023/12/16 09:12:47;;;;;;;3.92;1.33;;;10.20;99.90;;;;;;5147231;27;20055;-54
2023/12/16 09:15:13;;;;;;;5.63;1.77;;;10.20;99.90;;;;;;5146968;27;20064;-53
2023/12/16 09:17:39;;;;;;;7.45;2.05;;;10.30;99.90;;;;;;5147145;27;20035;-53
2023/12/16 09:20:05;;;;;;;2.67;1.20;;;10.30;99.90;;;;;;5147346;27;20203;-54
2023/12/16 09:22:31;;;;;;;5.72;1.60;;;10.30;99.90;;;;;;5146607;27;20285;-54
2023/12/16 09:24:57;;;;;;;4.78;1.45;;;10.30;99.90;;;;;;5145973;27;20042;-54
2023/12/16 09:27:22;;;;;;;4.70;1.10;;;10.30;99.90;;;;;;5145986;27;20027;-54
2023/12/16 09:29:48;;;;;;;7.50;1.88;;;10.30;99.90;;;;;;5147175;27;20086;-54
2023/12/16 09:32:14;;;;;;;2.90;1.00;;;10.30;99.90;;;;;;5147197;27;20034;-54
2023/12/16 09:34:41;;;;;;;9.60;1.73;;;10.30;99.90;;;;;;5146982;27;20026;-53
2023/12/16 09:37:08;;;;;;;4.03;1.45;;;10.30;99.90;;;;;;5146593;27;20094;-53
2023/12/16 09:39:34;;;;;;;5.55;1.13;;;10.30;99.90;;;;;;5146689;27;20042;-54
2023/12/16 09:42:02;;;;;;;6.15;1.67;;;10.40;99.90;;;;;;5146589;27;20019;-54
2023/12/16 09:44:28;;;;;;;4.32;0.88;;;10.40;99.90;;;;;;5128734;27;20019;-54
2023/12/16 09:46:56;;;;;;;3.38;1.20;;;10.30;99.90;;;;;;5145728;27;20038;-53
2023/12/16 09:49:22;;;;;;;1.85;0.80;;;10.40;99.90;;;;;;5146827;27;20245;-54
2023/12/16 09:51:48;;;;;;;1.83;0.80;;;10.40;99.90;;;;;;5145788;27;20023;-51
2023/12/16 09:54:16;;;;;;;4.40;1.10;;;10.30;99.90;;;;;;5146288;27;20031;-54
2023/12/16 09:56:42;;;;;;;3.88;1.33;;;10.30;99.90;;;;;;5145599;27;20161;-54
2023/12/16 09:59:07;;;;;;;3.78;1.00;;;10.40;99.90;;;;;;5146205;27;20043;-54
2023/12/16 10:01:33;;;;;;;1.50;1.00;;;10.30;99.90;;;;;;5146435;27;20100;-54
2023/12/16 10:03:59;;;;;;;5.10;1.45;;;10.30;99.90;;;;;;5145292;28;20031;-54
2023/12/16 10:06:24;;;;;;;5.47;1.30;;;10.40;99.90;;;;;;5128337;28;20023;-54
2023/12/16 10:08:50;;;;;;;6.35;1.55;;;10.40;99.90;;;;;;5145874;28;20116;-54
2023/12/16 10:11:16;;;;;;;7.07;2.00;;;10.40;99.90;;;;;;5146129;28;20037;-54
2023/12/16 10:13:59;;;;;;;3.97;1.30;;;10.40;99.90;;;;;;5146330;28;20031;-53
2023/12/16 10:16:25;;;;;;;2.83;1.10;;;10.50;99.90;;;;;;5146497;28;20035;-54
2023/12/16 10:18:55;;;;;;;3.20;0.95;;;10.50;99.90;;;;;;5145086;28;20031;-54
2023/12/16 10:21:27;;;;;;;;;;;10.50;99.90;;;;;;5146597;28;20045;-53
2023/12/16 10:23:55;;;;;;;6.72;0.90;;;10.50;99.90;;;;;;5146076;28;19919;-54
2023/12/16 10:26:21;;;;;;;6.28;1.30;;;10.50;99.90;;;;;;5145981;27;20082;-53
2023/12/16 10:28:47;;;;;;;2.28;0.90;;;10.60;99.90;;;;;;5149150;27;20038;-53
2023/12/16 10:31:13;;;;;;;4.90;0.93;;;10.60;99.90;;;;;;5150216;27;20038;-51
2023/12/16 10:33:39;;;;;;;2.00;0.73;;;10.60;99.90;;;;;;5150575;27;20031;-54
2023/12/16 10:36:07;;;;;;;4.38;1.30;;;10.60;99.90;;;;;;5149340;27;20034;-53
2023/12/16 10:38:32;;;;;;;3.20;0.80;;;10.60;99.90;;;;;;5149853;27;20035;-54
2023/12/16 10:40:58;;;;;;;4.22;1.15;;;10.60;99.90;;;;;;5149760;27;20058;-54
2023/12/16 10:43:24;;;;;;;5.07;2.03;;;10.60;99.90;;;;;;5149604;27;20285;-54
2023/12/16 10:45:50;;;;;;;7.40;2.30;;;10.60;99.90;;;;;;5149957;27;20226;-55
2023/12/16 10:48:16;;;;;;;7.00;3.83;;;10.70;99.90;;;;;;5150138;27;20030;-54
2023/12/16 10:50:45;;;;;;;9.75;3.85;;;10.70;99.90;;;;;;5149932;27;20019;-55
2023/12/16 10:53:24;;;;;;;19.83;10.27;;;10.70;99.90;;;;;;5148252;27;20039;-52
2023/12/16 10:55:54;;;;;;;9.40;3.03;;;10.70;99.90;;;;;;5149753;27;20229;-55
2023/12/16 10:58:19;;;;;;;18.80;8.65;;;10.80;99.90;;;;;;5148885;27;20094;-54
2023/12/16 11:00:46;;;;;;;18.60;10.57;;;10.80;99.90;;;;;;5149272;27;20042;-55
2023/12/16 11:03:25;;;;;;;9.68;4.75;;;10.80;99.90;;;;;;5148193;27;20095;-54
2023/12/16 11:05:52;;;;;;;4.43;1.70;;;10.80;99.90;;;;;;5149231;27;20285;-51
2023/12/16 11:08:18;;;;;;;1.75;0.73;;;10.80;99.90;;;;;;5148859;27;20058;-55
2023/12/16 11:10:44;;;;;;;6.97;2.45;;;11.00;99.90;;;;;;5148423;27;20027;-55
2023/12/16 11:13:10;;;;;;;5.25;1.98;;;11.00;99.90;;;;;;5149536;27;20107;-54
2023/12/16 11:15:35;;;;;;;1.63;1.13;;;11.00;99.90;;;;;;5149057;27;20024;-54
2023/12/16 11:18:08;;;;;;;2.22;1.30;;;10.90;99.90;;;;;;5149267;27;20038;-54
2023/12/16 11:20:48;;;;;;;3.80;1.20;;;10.90;99.90;;;;;;5148256;27;20068;-54
2023/12/16 11:23:17;;;;;;;3.20;0.90;;;10.80;99.90;;;;;;5148119;27;20019;-54
2023/12/16 11:25:42;;;;;;;7.47;3.58;;;10.70;99.90;;;;;;5149156;27;20066;-53
2023/12/16 11:28:09;;;;;;;4.93;1.67;;;10.70;99.90;;;;;;5149336;27;20030;-54
2023/12/16 11:30:34;;;;;;;4.82;2.05;;;10.70;99.90;;;;;;5149235;27;20057;-53
2023/12/16 11:33:00;;;;;;;4.82;1.75;;;10.70;99.90;;;;;;5147795;27;20035;-56
2023/12/16 11:35:38;;;;;;;6.78;2.60;;;10.70;99.90;;;;;;5147557;27;20023;-55
2023/12/16 11:38:04;;;;;;;7.88;2.85;;;10.60;99.90;;;;;;5148338;27;20062;-54
2023/12/16 11:40:42;;;;;;;7.00;2.05;;;10.70;99.90;;;;;;5147717;27;20106;-53
2023/12/16 11:43:09;;;;;;;10.30;2.65;;;10.60;99.90;;;;;;5148728;27;20177;-53
2023/12/16 11:45:39;;;;;;;5.65;1.65;;;10.60;99.90;;;;;;5148612;27;20023;-53
2023/12/16 11:48:09;;;;;;;10.25;3.05;;;10.60;99.90;;;;;;5147503;27;20011;-53
2023/12/16 11:50:36;;;;;;;11.85;3.65;;;10.60;99.90;;;;;;5148856;27;20055;-53
2023/12/16 11:53:02;;;;;;;12.05;6.22;;;10.60;99.90;;;;;;5148824;27;20042;-54
2023/12/16 11:55:28;;;;;;;17.92;7.53;;;10.60;99.90;;;;;;5147832;27;20022;-53
2023/12/16 11:57:54;;;;;;;13.05;6.13;;;10.60;99.90;;;;;;5147775;27;20035;-53
2023/12/16 12:00:20;;;;;;;11.48;4.68;;;10.60;99.90;;;;;;5148547;27;20076;-53
2023/12/16 12:02:50;;;;;;;8.57;3.95;;;10.60;99.90;;;;;;5148147;27;20027;-54
2023/12/16 12:05:16;;;;;;;9.65;3.60;;;10.60;99.90;;;;;;5147402;27;20019;-54
2023/12/16 12:07:42;;;;;;;7.80;2.90;;;10.70;99.90;;;;;;5148121;27;20143;-53
2023/12/16 12:10:11;;;;;;;5.10;2.15;;;10.60;99.90;;;;;;5148373;27;20243;-54
2023/12/16 12:12:37;;;;;;;10.98;3.20;;;10.70;99.90;;;;;;5147274;27;20079;-54
2023/12/16 12:15:04;;;;;;;6.00;2.92;;;10.70;99.90;;;;;;5148271;27;20023;-54
2023/12/16 12:17:29;;;;;;;12.30;7.57;;;10.70;99.90;;;;;;5148436;27;20031;-53
2023/12/16 12:19:55;;;;;;;5.88;2.33;;;10.70;99.90;;;;;;5147143;27;20310;-53
2023/12/16 12:22:22;;;;;;;6.47;1.92;;;10.70;99.90;;;;;;5148136;27;20027;-54
2023/12/16 12:24:48;;;;;;;6.68;2.45;;;10.60;99.90;;;;;;5147669;27;20091;-54
2023/12/16 12:27:13;;;;;;;11.50;3.28;;;10.70;99.90;;;;;;5146773;27;20027;-54
2023/12/16 12:29:55;;;;;;;5.60;2.63;;;10.70;99.90;;;;;;5147754;27;20082;-54
2023/12/16 12:32:22;;;;;;;6.97;2.25;;;10.70;99.90;;;;;;5146408;27;20031;-53
2023/12/16 12:35:11;;;;;;;5.20;1.90;;;10.70;99.90;;;;;;5147505;27;20031;-55
2023/12/16 12:37:40;;;;;;;7.45;2.88;;;10.70;99.90;;;;;;5147904;27;20033;-55
2023/12/16 12:40:12;;;;;;;10.00;2.15;;;10.70;99.90;;;;;;5147630;27;20030;-54